Terminal Aerodrome Forecast
Issued by NWS

Home | Current Version | Previous Version | Graphics & Text | Print | Product List | Glossary On
Versions: 1 2 3 4 5 6 7 8 9 10 11 12 13
000
FTUS43 KICT 131122
TAFSLN
TAF
KSLN 131122Z 1312/1412 30010KT P6SM SKC
     FM131500 32017G25KT P6SM BKN250
     FM131700 33024G35KT P6SM BKN250
     FM140000 34010KT P6SM BKN200
     FM141000 32007KT P6SM BKN110=

USA.gov is the U.S. government's official web portal to all federal, state and local government web resources and services.